sensor_id;sensor_type;location;lat;lon;timestamp;P1;durP1;ratioP1;P2;durP2;ratioP2
1276;SDS011;631;51.024;13.826;2023-09-19T00:01:38;16.70;;;15.40;;
1276;SDS011;631;51.024;13.826;2023-09-19T00:04:09;17.30;;;15.70;;
1276;SDS011;631;51.024;13.826;2023-09-19T00:06:35;17.73;;;16.13;;
1276;SDS011;631;51.024;13.826;2023-09-19T00:09:03;16.43;;;14.93;;
1276;SDS011;631;51.024;13.826;2023-09-19T00:11:30;17.03;;;15.73;;
1276;SDS011;631;51.024;13.826;2023-09-19T00:13:56;17.13;;;15.80;;
1276;SDS011;631;51.024;13.826;2023-09-19T00:16:24;18.30;;;16.80;;
1276;SDS011;631;51.024;13.826;2023-09-19T00:18:50;18.03;;;16.53;;
1276;SDS011;631;51.024;13.826;2023-09-19T00:21:16;16.87;;;15.47;;
1276;SDS011;631;51.024;13.826;2023-09-19T00:23:41;17.10;;;15.57;;
1276;SDS011;631;51.024;13.826;2023-09-19T00:26:07;18.20;;;16.57;;
1276;SDS011;631;51.024;13.826;2023-09-19T00:28:33;16.80;;;15.50;;
1276;SDS011;631;51.024;13.826;2023-09-19T00:30:58;17.80;;;16.30;;
1276;SDS011;631;51.024;13.826;2023-09-19T00:33:26;18.03;;;16.53;;
1276;SDS011;631;51.024;13.826;2023-09-19T00:35:54;19.63;;;18.07;;
1276;SDS011;631;51.024;13.826;2023-09-19T00:38:23;19.03;;;17.63;;
1276;SDS011;631;51.024;13.826;2023-09-19T00:40:52;18.30;;;16.73;;
1276;SDS011;631;51.024;13.826;2023-09-19T00:43:19;20.13;;;17.93;;
1276;SDS011;631;51.024;13.826;2023-09-19T00:45:46;19.27;;;17.73;;
1276;SDS011;631;51.024;13.826;2023-09-19T00:48:14;19.70;;;18.10;;
1276;SDS011;631;51.024;13.826;2023-09-19T00:50:43;18.43;;;17.00;;
1276;SDS011;631;51.024;13.826;2023-09-19T00:53:12;19.63;;;18.03;;
1276;SDS011;631;51.024;13.826;2023-09-19T00:55:40;19.23;;;17.53;;
1276;SDS011;631;51.024;13.826;2023-09-19T00:58:07;19.03;;;17.60;;
1276;SDS011;631;51.024;13.826;2023-09-19T01:00:35;19.07;;;17.57;;
1276;SDS011;631;51.024;13.826;2023-09-19T01:03:01;19.07;;;17.60;;
1276;SDS011;631;51.024;13.826;2023-09-19T01:05:28;19.97;;;18.03;;
1276;SDS011;631;51.024;13.826;2023-09-19T01:07:54;18.47;;;17.17;;
1276;SDS011;631;51.024;13.826;2023-09-19T01:10:20;18.47;;;17.13;;
1276;SDS011;631;51.024;13.826;2023-09-19T01:18:11;18.40;;;16.90;;
1276;SDS011;631;51.024;13.826;2023-09-19T01:21:00;18.17;;;16.87;;
1276;SDS011;631;51.024;13.826;2023-09-19T01:26:31;17.73;;;16.40;;
1276;SDS011;631;51.024;13.826;2023-09-19T01:32:04;17.73;;;16.40;;
1276;SDS011;631;51.024;13.826;2023-09-19T01:34:46;17.93;;;16.57;;
1276;SDS011;631;51.024;13.826;2023-09-19T01:37:14;17.87;;;16.47;;
1276;SDS011;631;51.024;13.826;2023-09-19T01:39:48;16.53;;;15.40;;
1276;SDS011;631;51.024;13.826;2023-09-19T01:45:15;17.90;;;16.53;;
1276;SDS011;631;51.024;13.826;2023-09-19T01:47:59;18.67;;;17.10;;
1276;SDS011;631;51.024;13.826;2023-09-19T01:53:26;17.57;;;16.20;;
1276;SDS011;631;51.024;13.826;2023-09-19T01:55:58;16.57;;;15.27;;
1276;SDS011;631;51.024;13.826;2023-09-19T01:58:31;17.40;;;16.20;;
1276;SDS011;631;51.024;13.826;2023-09-19T02:01:00;18.80;;;17.10;;
1276;SDS011;631;51.024;13.826;2023-09-19T02:03:28;16.87;;;15.77;;
1276;SDS011;631;51.024;13.826;2023-09-19T02:05:55;17.37;;;16.07;;
1276;SDS011;631;51.024;13.826;2023-09-19T02:08:22;17.80;;;16.50;;
1276;SDS011;631;51.024;13.826;2023-09-19T02:10:51;17.03;;;15.80;;
1276;SDS011;631;51.024;13.826;2023-09-19T02:13:18;17.50;;;16.10;;
1276;SDS011;631;51.024;13.826;2023-09-19T02:15:45;17.40;;;16.17;;
1276;SDS011;631;51.024;13.826;2023-09-19T02:18:11;17.90;;;16.50;;
1276;SDS011;631;51.024;13.826;2023-09-19T02:20:38;16.97;;;15.73;;
1276;SDS011;631;51.024;13.826;2023-09-19T02:23:04;17.83;;;16.27;;
1276;SDS011;631;51.024;13.826;2023-09-19T02:25:30;16.53;;;15.33;;
1276;SDS011;631;51.024;13.826;2023-09-19T02:27:56;16.80;;;15.40;;
1276;SDS011;631;51.024;13.826;2023-09-19T02:30:23;16.67;;;15.40;;
1276;SDS011;631;51.024;13.826;2023-09-19T02:32:52;17.30;;;15.90;;
1276;SDS011;631;51.024;13.826;2023-09-19T02:35:18;17.03;;;15.43;;
1276;SDS011;631;51.024;13.826;2023-09-19T02:37:47;16.87;;;15.67;;
1276;SDS011;631;51.024;13.826;2023-09-19T02:40:13;16.93;;;15.57;;
1276;SDS011;631;51.024;13.826;2023-09-19T02:42:52;16.47;;;15.27;;
1276;SDS011;631;51.024;13.826;2023-09-19T02:45:19;16.90;;;15.57;;
1276;SDS011;631;51.024;13.826;2023-09-19T02:47:45;16.60;;;15.30;;
1276;SDS011;631;51.024;13.826;2023-09-19T02:50:12;16.10;;;14.90;;
1276;SDS011;631;51.024;13.826;2023-09-19T02:52:41;15.83;;;14.73;;
1276;SDS011;631;51.024;13.826;2023-09-19T02:55:12;16.50;;;15.40;;
1276;SDS011;631;51.024;13.826;2023-09-19T02:57:45;15.73;;;14.50;;
1276;SDS011;631;51.024;13.826;2023-09-19T03:00:15;17.17;;;15.97;;
1276;SDS011;631;51.024;13.826;2023-09-19T03:02:55;15.93;;;14.83;;
1276;SDS011;631;51.024;13.826;2023-09-19T03:05:22;16.67;;;15.57;;
1276;SDS011;631;51.024;13.826;2023-09-19T03:07:48;16.60;;;15.30;;
1276;SDS011;631;51.024;13.826;2023-09-19T03:10:17;16.10;;;14.90;;
1276;SDS011;631;51.024;13.826;2023-09-19T03:12:44;16.07;;;15.00;;
1276;SDS011;631;51.024;13.826;2023-09-19T03:15:09;15.23;;;14.13;;
1276;SDS011;631;51.024;13.826;2023-09-19T03:17:35;16.63;;;15.43;;
1276;SDS011;631;51.024;13.826;2023-09-19T03:20:02;16.50;;;15.30;;
1276;SDS011;631;51.024;13.826;2023-09-19T03:22:34;16.33;;;14.93;;
1276;SDS011;631;51.024;13.826;2023-09-19T03:24:59;15.87;;;14.80;;
1276;SDS011;631;51.024;13.826;2023-09-19T03:27:25;16.20;;;15.07;;
1276;SDS011;631;51.024;13.826;2023-09-19T03:29:52;15.80;;;14.60;;
1276;SDS011;631;51.024;13.826;2023-09-19T03:32:18;14.20;;;13.20;;
1276;SDS011;631;51.024;13.826;2023-09-19T03:34:44;15.80;;;14.80;;
1276;SDS011;631;51.024;13.826;2023-09-19T03:37:10;15.73;;;14.67;;
1276;SDS011;631;51.024;13.826;2023-09-19T03:39:36;15.17;;;14.20;;
1276;SDS011;631;51.024;13.826;2023-09-19T03:42:02;14.50;;;13.60;;
1276;SDS011;631;51.024;13.826;2023-09-19T03:44:29;14.63;;;13.73;;
1276;SDS011;631;51.024;13.826;2023-09-19T03:46:55;14.43;;;13.53;;
1276;SDS011;631;51.024;13.826;2023-09-19T03:49:21;14.57;;;13.70;;
1276;SDS011;631;51.024;13.826;2023-09-19T03:51:47;13.73;;;12.93;;
1276;SDS011;631;51.024;13.826;2023-09-19T03:54:13;14.50;;;13.40;;
1276;SDS011;631;51.024;13.826;2023-09-19T03:56:38;14.27;;;13.37;;
1276;SDS011;631;51.024;13.826;2023-09-19T03:59:04;14.00;;;13.10;;
1276;SDS011;631;51.024;13.826;2023-09-19T04:01:30;13.47;;;12.67;;
1276;SDS011;631;51.024;13.826;2023-09-19T04:03:58;13.27;;;12.47;;
1276;SDS011;631;51.024;13.826;2023-09-19T04:06:23;13.27;;;12.27;;
1276;SDS011;631;51.024;13.826;2023-09-19T04:08:49;11.43;;;10.80;;
1276;SDS011;631;51.024;13.826;2023-09-19T04:11:15;12.87;;;12.17;;
1276;SDS011;631;51.024;13.826;2023-09-19T04:13:40;11.50;;;10.80;;
1276;SDS011;631;51.024;13.826;2023-09-19T04:16:06;12.90;;;12.10;;
1276;SDS011;631;51.024;13.826;2023-09-19T04:18:32;12.63;;;11.90;;
1276;SDS011;631;51.024;13.826;2023-09-19T04:21:02;11.30;;;10.73;;
1276;SDS011;631;51.024;13.826;2023-09-19T04:23:29;12.93;;;12.13;;
1276;SDS011;631;51.024;13.826;2023-09-19T04:25:55;13.47;;;12.57;;
1276;SDS011;631;51.024;13.826;2023-09-19T04:28:22;11.83;;;10.93;;
1276;SDS011;631;51.024;13.826;2023-09-19T04:30:48;11.67;;;11.17;;
1276;SDS011;631;51.024;13.826;2023-09-19T04:33:13;11.73;;;11.13;;
1276;SDS011;631;51.024;13.826;2023-09-19T04:35:39;12.50;;;11.90;;
1276;SDS011;631;51.024;13.826;2023-09-19T04:38:07;12.00;;;11.30;;
1276;SDS011;631;51.024;13.826;2023-09-19T04:40:33;11.60;;;11.07;;
1276;SDS011;631;51.024;13.826;2023-09-19T04:42:59;12.33;;;11.43;;
1276;SDS011;631;51.024;13.826;2023-09-19T04:45:28;12.10;;;11.50;;
1276;SDS011;631;51.024;13.826;2023-09-19T04:47:54;12.27;;;11.40;;
1276;SDS011;631;51.024;13.826;2023-09-19T04:50:21;12.07;;;11.37;;
1276;SDS011;631;51.024;13.826;2023-09-19T04:52:51;10.57;;;10.07;;
1276;SDS011;631;51.024;13.826;2023-09-19T04:55:17;12.07;;;11.47;;
1276;SDS011;631;51.024;13.826;2023-09-19T04:57:47;12.57;;;11.87;;
1276;SDS011;631;51.024;13.826;2023-09-19T05:00:17;12.40;;;11.70;;
1276;SDS011;631;51.024;13.826;2023-09-19T05:02:44;12.43;;;11.73;;
1276;SDS011;631;51.024;13.826;2023-09-19T05:05:10;11.80;;;11.20;;
1276;SDS011;631;51.024;13.826;2023-09-19T05:07:40;12.20;;;11.50;;
1276;SDS011;631;51.024;13.826;2023-09-19T05:10:07;11.83;;;11.23;;
1276;SDS011;631;51.024;13.826;2023-09-19T05:12:34;12.07;;;11.07;;
1276;SDS011;631;51.024;13.826;2023-09-19T05:15:03;12.30;;;11.60;;
1276;SDS011;631;51.024;13.826;2023-09-19T05:17:29;12.37;;;11.67;;
1276;SDS011;631;51.024;13.826;2023-09-19T05:19:56;12.37;;;11.67;;
1276;SDS011;631;51.024;13.826;2023-09-19T05:22:23;11.50;;;10.90;;
1276;SDS011;631;51.024;13.826;2023-09-19T05:24:51;12.70;;;12.00;;
1276;SDS011;631;51.024;13.826;2023-09-19T05:27:18;11.47;;;10.67;;
1276;SDS011;631;51.024;13.826;2023-09-19T05:29:45;12.10;;;11.37;;
1276;SDS011;631;51.024;13.826;2023-09-19T05:32:11;12.00;;;11.40;;
1276;SDS011;631;51.024;13.826;2023-09-19T05:34:37;12.00;;;11.40;;
1276;SDS011;631;51.024;13.826;2023-09-19T05:37:03;12.77;;;11.97;;
1276;SDS011;631;51.024;13.826;2023-09-19T05:39:32;11.90;;;11.30;;
1276;SDS011;631;51.024;13.826;2023-09-19T05:41:58;12.37;;;11.67;;
1276;SDS011;631;51.024;13.826;2023-09-19T05:44:25;11.77;;;10.80;;
1276;SDS011;631;51.024;13.826;2023-09-19T05:46:50;11.70;;;11.10;;
1276;SDS011;631;51.024;13.826;2023-09-19T05:49:17;11.90;;;11.30;;
1276;SDS011;631;51.024;13.826;2023-09-19T05:51:43;11.23;;;10.63;;
1276;SDS011;631;51.024;13.826;2023-09-19T05:54:08;12.37;;;11.67;;
1276;SDS011;631;51.024;13.826;2023-09-19T05:56:36;11.87;;;11.17;;
1276;SDS011;631;51.024;13.826;2023-09-19T05:59:01;12.50;;;11.80;;
1276;SDS011;631;51.024;13.826;2023-09-19T06:01:28;11.60;;;10.90;;
1276;SDS011;631;51.024;13.826;2023-09-19T06:03:56;11.77;;;11.27;;
1276;SDS011;631;51.024;13.826;2023-09-19T06:06:21;11.87;;;11.17;;
1276;SDS011;631;51.024;13.826;2023-09-19T06:08:49;11.70;;;11.00;;
1276;SDS011;631;51.024;13.826;2023-09-19T06:11:15;12.60;;;11.80;;
1276;SDS011;631;51.024;13.826;2023-09-19T06:13:41;12.20;;;11.60;;
1276;SDS011;631;51.024;13.826;2023-09-19T06:16:06;12.20;;;11.60;;
1276;SDS011;631;51.024;13.826;2023-09-19T06:18:32;11.30;;;10.80;;
1276;SDS011;631;51.024;13.826;2023-09-19T06:20:59;11.33;;;10.83;;
1276;SDS011;631;51.024;13.826;2023-09-19T06:23:25;11.43;;;10.90;;
1276;SDS011;631;51.024;13.826;2023-09-19T06:25:54;12.00;;;11.40;;
1276;SDS011;631;51.024;13.826;2023-09-19T06:28:19;11.67;;;11.17;;
1276;SDS011;631;51.024;13.826;2023-09-19T06:30:49;11.07;;;10.57;;
1276;SDS011;631;51.024;13.826;2023-09-19T06:33:15;11.20;;;10.60;;
1276;SDS011;631;51.024;13.826;2023-09-19T06:35:42;12.80;;;12.20;;
1276;SDS011;631;51.024;13.826;2023-09-19T06:38:09;12.07;;;11.47;;
1276;SDS011;631;51.024;13.826;2023-09-19T06:40:38;11.83;;;11.33;;
1276;SDS011;631;51.024;13.826;2023-09-19T06:43:04;12.83;;;12.13;;
1276;SDS011;631;51.024;13.826;2023-09-19T06:45:30;12.83;;;12.03;;
1276;SDS011;631;51.024;13.826;2023-09-19T06:47:57;12.73;;;12.13;;
1276;SDS011;631;51.024;13.826;2023-09-19T06:50:23;12.37;;;11.77;;
1276;SDS011;631;51.024;13.826;2023-09-19T06:52:49;12.20;;;11.60;;
1276;SDS011;631;51.024;13.826;2023-09-19T06:55:17;12.23;;;11.63;;
1276;SDS011;631;51.024;13.826;2023-09-19T06:57:44;12.80;;;12.10;;
1276;SDS011;631;51.024;13.826;2023-09-19T07:00:11;11.80;;;11.20;;
1276;SDS011;631;51.024;13.826;2023-09-19T07:03:23;11.73;;;10.93;;
1276;SDS011;631;51.024;13.826;2023-09-19T07:05:35;12.20;;;11.40;;
1276;SDS011;631;51.024;13.826;2023-09-19T07:08:03;12.40;;;11.60;;
1276;SDS011;631;51.024;13.826;2023-09-19T07:10:29;11.60;;;11.10;;
1276;SDS011;631;51.024;13.826;2023-09-19T07:13:02;11.80;;;11.30;;
1276;SDS011;631;51.024;13.826;2023-09-19T07:15:29;11.80;;;11.27;;
1276;SDS011;631;51.024;13.826;2023-09-19T07:17:58;12.00;;;11.40;;
1276;SDS011;631;51.024;13.826;2023-09-19T07:20:25;11.70;;;11.10;;
1276;SDS011;631;51.024;13.826;2023-09-19T07:22:52;11.83;;;11.23;;
1276;SDS011;631;51.024;13.826;2023-09-19T07:25:20;11.40;;;10.90;;
1276;SDS011;631;51.024;13.826;2023-09-19T07:27:46;11.70;;;11.20;;
1276;SDS011;631;51.024;13.826;2023-09-19T07:30:12;12.20;;;11.60;;
1276;SDS011;631;51.024;13.826;2023-09-19T07:32:38;11.00;;;10.50;;
1276;SDS011;631;51.024;13.826;2023-09-19T07:35:04;12.10;;;11.60;;
1276;SDS011;631;51.024;13.826;2023-09-19T07:37:33;11.60;;;11.10;;
1276;SDS011;631;51.024;13.826;2023-09-19T07:39:59;12.07;;;11.47;;
1276;SDS011;631;51.024;13.826;2023-09-19T07:42:26;11.70;;;11.20;;
1276;SDS011;631;51.024;13.826;2023-09-19T07:44:52;12.23;;;11.63;;
1276;SDS011;631;51.024;13.826;2023-09-19T07:47:19;12.00;;;11.50;;
1276;SDS011;631;51.024;13.826;2023-09-19T07:49:48;12.13;;;11.53;;
1276;SDS011;631;51.024;13.826;2023-09-19T07:52:14;12.23;;;11.60;;
1276;SDS011;631;51.024;13.826;2023-09-19T07:54:41;12.37;;;11.77;;
1276;SDS011;631;51.024;13.826;2023-09-19T07:57:09;13.03;;;12.23;;
1276;SDS011;631;51.024;13.826;2023-09-19T07:59:36;12.20;;;11.50;;
1276;SDS011;631;51.024;13.826;2023-09-19T08:02:03;12.10;;;11.60;;
1276;SDS011;631;51.024;13.826;2023-09-19T08:04:29;11.07;;;10.57;;
1276;SDS011;631;51.024;13.826;2023-09-19T08:06:58;12.00;;;11.50;;
1276;SDS011;631;51.024;13.826;2023-09-19T08:09:25;10.00;;;9.60;;
1276;SDS011;631;51.024;13.826;2023-09-19T08:11:51;12.13;;;11.53;;
1276;SDS011;631;51.024;13.826;2023-09-19T08:14:16;11.83;;;11.23;;
1276;SDS011;631;51.024;13.826;2023-09-19T08:16:42;11.50;;;10.90;;
1276;SDS011;631;51.024;13.826;2023-09-19T08:19:09;11.70;;;11.20;;
1276;SDS011;631;51.024;13.826;2023-09-19T08:21:35;11.60;;;11.10;;
1276;SDS011;631;51.024;13.826;2023-09-19T08:24:01;11.53;;;11.03;;
1276;SDS011;631;51.024;13.826;2023-09-19T08:26:30;12.43;;;11.93;;
1276;SDS011;631;51.024;13.826;2023-09-19T08:28:56;12.50;;;11.90;;
1276;SDS011;631;51.024;13.826;2023-09-19T08:31:22;12.33;;;11.73;;
1276;SDS011;631;51.024;13.826;2023-09-19T08:33:48;11.70;;;11.20;;
1276;SDS011;631;51.024;13.826;2023-09-19T08:36:16;12.27;;;11.57;;
1276;SDS011;631;51.024;13.826;2023-09-19T08:38:42;11.00;;;10.60;;
1276;SDS011;631;51.024;13.826;2023-09-19T08:41:08;12.20;;;11.70;;
1276;SDS011;631;51.024;13.826;2023-09-19T08:43:34;11.60;;;11.10;;
1276;SDS011;631;51.024;13.826;2023-09-19T08:46:07;11.73;;;11.23;;
1276;SDS011;631;51.024;13.826;2023-09-19T08:48:40;12.30;;;11.60;;
1276;SDS011;631;51.024;13.826;2023-09-19T08:51:16;11.90;;;11.40;;
1276;SDS011;631;51.024;13.826;2023-09-19T08:54:00;11.60;;;11.10;;
1276;SDS011;631;51.024;13.826;2023-09-19T08:56:36;12.50;;;11.90;;
1276;SDS011;631;51.024;13.826;2023-09-19T08:59:05;11.67;;;11.10;;
1276;SDS011;631;51.024;13.826;2023-09-19T09:01:37;11.53;;;11.03;;
1276;SDS011;631;51.024;13.826;2023-09-19T09:04:06;11.13;;;10.60;;
1276;SDS011;631;51.024;13.826;2023-09-19T09:06:34;11.57;;;11.07;;
1276;SDS011;631;51.024;13.826;2023-09-19T09:09:01;11.93;;;11.43;;
1276;SDS011;631;51.024;13.826;2023-09-19T09:11:28;11.10;;;10.60;;
1276;SDS011;631;51.024;13.826;2023-09-19T09:13:54;11.43;;;10.93;;
1276;SDS011;631;51.024;13.826;2023-09-19T09:16:19;11.60;;;11.10;;
1276;SDS011;631;51.024;13.826;2023-09-19T09:18:45;11.37;;;10.87;;
1276;SDS011;631;51.024;13.826;2023-09-19T09:21:12;10.87;;;10.37;;
1276;SDS011;631;51.024;13.826;2023-09-19T09:23:40;11.43;;;10.93;;
1276;SDS011;631;51.024;13.826;2023-09-19T09:26:06;10.37;;;9.97;;
1276;SDS011;631;51.024;13.826;2023-09-19T09:28:32;11.07;;;10.67;;
1276;SDS011;631;51.024;13.826;2023-09-19T09:31:00;11.20;;;10.70;;
1276;SDS011;631;51.024;13.826;2023-09-19T09:33:33;11.53;;;11.03;;
1276;SDS011;631;51.024;13.826;2023-09-19T09:36:00;10.90;;;10.50;;
1276;SDS011;631;51.024;13.826;2023-09-19T09:38:44;10.90;;;10.50;;
1276;SDS011;631;51.024;13.826;2023-09-19T09:41:11;11.10;;;10.70;;
1276;SDS011;631;51.024;13.826;2023-09-19T09:43:42;9.67;;;9.27;;
1276;SDS011;631;51.024;13.826;2023-09-19T09:46:16;11.63;;;11.13;;
1276;SDS011;631;51.024;13.826;2023-09-19T09:48:47;9.80;;;9.40;;
1276;SDS011;631;51.024;13.826;2023-09-19T09:51:36;10.50;;;10.10;;
1276;SDS011;631;51.024;13.826;2023-09-19T09:54:10;10.40;;;9.90;;
1276;SDS011;631;51.024;13.826;2023-09-19T09:56:53;10.23;;;9.83;;
1276;SDS011;631;51.024;13.826;2023-09-19T09:59:51;10.97;;;10.47;;
1276;SDS011;631;51.024;13.826;2023-09-19T10:02:40;10.50;;;10.03;;
1276;SDS011;631;51.024;13.826;2023-09-19T10:07:44;10.70;;;10.20;;
1276;SDS011;631;51.024;13.826;2023-09-19T10:10:34;11.03;;;10.53;;
1276;SDS011;631;51.024;13.826;2023-09-19T10:13:06;10.40;;;10.00;;
1276;SDS011;631;51.024;13.826;2023-09-19T10:15:33;10.20;;;9.70;;
1276;SDS011;631;51.024;13.826;2023-09-19T10:18:04;10.33;;;9.80;;
1276;SDS011;631;51.024;13.826;2023-09-19T10:20:33;9.57;;;9.17;;
1276;SDS011;631;51.024;13.826;2023-09-19T10:23:00;9.50;;;9.10;;
1276;SDS011;631;51.024;13.826;2023-09-19T10:25:29;10.77;;;10.27;;
1276;SDS011;631;51.024;13.826;2023-09-19T10:27:58;10.47;;;9.97;;
1276;SDS011;631;51.024;13.826;2023-09-19T10:30:33;10.07;;;9.57;;
1276;SDS011;631;51.024;13.826;2023-09-19T10:33:04;9.77;;;9.37;;
1276;SDS011;631;51.024;13.826;2023-09-19T10:35:32;9.87;;;9.47;;
1276;SDS011;631;51.024;13.826;2023-09-19T10:38:02;10.50;;;10.10;;
1276;SDS011;631;51.024;13.826;2023-09-19T10:40:32;9.63;;;9.23;;
1276;SDS011;631;51.024;13.826;2023-09-19T10:43:02;10.20;;;9.80;;
1276;SDS011;631;51.024;13.826;2023-09-19T10:45:30;10.37;;;9.90;;
1276;SDS011;631;51.024;13.826;2023-09-19T10:48:03;10.80;;;10.40;;
1276;SDS011;631;51.024;13.826;2023-09-19T10:50:31;10.60;;;10.20;;
1276;SDS011;631;51.024;13.826;2023-09-19T10:53:06;11.80;;;11.30;;
1276;SDS011;631;51.024;13.826;2023-09-19T10:55:36;11.50;;;11.00;;
1276;SDS011;631;51.024;13.826;2023-09-19T10:58:02;11.00;;;10.53;;
1276;SDS011;631;51.024;13.826;2023-09-19T11:00:55;10.90;;;10.40;;
1276;SDS011;631;51.024;13.826;2023-09-19T11:03:26;10.23;;;9.80;;
1276;SDS011;631;51.024;13.826;2023-09-19T11:06:02;10.70;;;10.30;;
1276;SDS011;631;51.024;13.826;2023-09-19T11:08:30;9.60;;;9.20;;
1276;SDS011;631;51.024;13.826;2023-09-19T11:30:42;10.90;;;10.40;;
1276;SDS011;631;51.024;13.826;2023-09-19T11:36:09;9.80;;;9.40;;
1276;SDS011;631;51.024;13.826;2023-09-19T11:43:51;10.30;;;9.83;;
1276;SDS011;631;51.024;13.826;2023-09-19T11:46:20;10.57;;;10.07;;
1276;SDS011;631;51.024;13.826;2023-09-19T11:48:49;10.40;;;9.90;;
1276;SDS011;631;51.024;13.826;2023-09-19T11:51:16;10.13;;;9.70;;
1276;SDS011;631;51.024;13.826;2023-09-19T11:53:51;11.00;;;10.40;;
1276;SDS011;631;51.024;13.826;2023-09-19T11:56:18;10.27;;;9.87;;
1276;SDS011;631;51.024;13.826;2023-09-19T11:58:46;10.70;;;10.20;;
1276;SDS011;631;51.024;13.826;2023-09-19T12:01:15;10.80;;;10.30;;
1276;SDS011;631;51.024;13.826;2023-09-19T12:03:51;10.40;;;9.90;;
1276;SDS011;631;51.024;13.826;2023-09-19T12:06:18;10.40;;;9.90;;
1276;SDS011;631;51.024;13.826;2023-09-19T12:08:47;10.60;;;10.00;;
1276;SDS011;631;51.024;13.826;2023-09-19T12:11:15;10.40;;;10.00;;
1276;SDS011;631;51.024;13.826;2023-09-19T12:13:45;9.77;;;9.37;;
1276;SDS011;631;51.024;13.826;2023-09-19T12:16:13;10.27;;;9.77;;
1276;SDS011;631;51.024;13.826;2023-09-19T12:18:42;9.93;;;9.43;;
1276;SDS011;631;51.024;13.826;2023-09-19T12:21:31;9.30;;;8.80;;
1276;SDS011;631;51.024;13.826;2023-09-19T12:26:39;10.30;;;9.90;;
1276;SDS011;631;51.024;13.826;2023-09-19T12:29:10;10.70;;;10.10;;
1276;SDS011;631;51.024;13.826;2023-09-19T12:31:53;11.17;;;10.60;;
1276;SDS011;631;51.024;13.826;2023-09-19T12:34:23;10.67;;;10.27;;
1276;SDS011;631;51.024;13.826;2023-09-19T12:39:38;10.60;;;10.10;;
1276;SDS011;631;51.024;13.826;2023-09-19T12:42:06;8.90;;;8.50;;
1276;SDS011;631;51.024;13.826;2023-09-19T12:44:39;9.60;;;9.20;;
1276;SDS011;631;51.024;13.826;2023-09-19T12:47:10;10.00;;;9.60;;
1276;SDS011;631;51.024;13.826;2023-09-19T12:49:36;10.50;;;10.00;;
1276;SDS011;631;51.024;13.826;2023-09-19T12:52:35;11.30;;;10.80;;
1276;SDS011;631;51.024;13.826;2023-09-19T12:55:01;10.20;;;9.80;;
1276;SDS011;631;51.024;13.826;2023-09-19T12:57:28;10.70;;;10.30;;
1276;SDS011;631;51.024;13.826;2023-09-19T12:59:53;10.63;;;10.03;;
1276;SDS011;631;51.024;13.826;2023-09-19T13:02:20;10.10;;;9.70;;
1276;SDS011;631;51.024;13.826;2023-09-19T13:04:52;10.90;;;10.40;;
1276;SDS011;631;51.024;13.826;2023-09-19T13:10:10;10.00;;;9.60;;
1276;SDS011;631;51.024;13.826;2023-09-19T13:12:39;10.40;;;10.00;;
1276;SDS011;631;51.024;13.826;2023-09-19T13:15:09;10.60;;;10.10;;
1276;SDS011;631;51.024;13.826;2023-09-19T13:17:43;10.93;;;10.40;;
1276;SDS011;631;51.024;13.826;2023-09-19T13:20:22;10.83;;;10.33;;
1276;SDS011;631;51.024;13.826;2023-09-19T13:22:57;10.20;;;9.80;;
1276;SDS011;631;51.024;13.826;2023-09-19T13:25:33;10.53;;;10.03;;
1276;SDS011;631;51.024;13.826;2023-09-19T13:27:59;10.90;;;10.40;;
1276;SDS011;631;51.024;13.826;2023-09-19T13:30:29;10.43;;;10.03;;
1276;SDS011;631;51.024;13.826;2023-09-19T13:33:06;10.50;;;10.00;;
1276;SDS011;631;51.024;13.826;2023-09-19T13:35:34;10.53;;;10.03;;
1276;SDS011;631;51.024;13.826;2023-09-19T13:38:00;10.87;;;10.37;;
1276;SDS011;631;51.024;13.826;2023-09-19T13:40:26;11.33;;;10.83;;
1276;SDS011;631;51.024;13.826;2023-09-19T13:42:55;10.93;;;10.43;;
1276;SDS011;631;51.024;13.826;2023-09-19T13:45:21;10.60;;;10.10;;
1276;SDS011;631;51.024;13.826;2023-09-19T13:47:49;10.73;;;10.23;;
1276;SDS011;631;51.024;13.826;2023-09-19T13:50:15;10.50;;;10.00;;
1276;SDS011;631;51.024;13.826;2023-09-19T13:52:42;9.93;;;9.50;;
1276;SDS011;631;51.024;13.826;2023-09-19T13:55:07;10.60;;;10.20;;
1276;SDS011;631;51.024;13.826;2023-09-19T13:57:33;11.03;;;10.43;;
1276;SDS011;631;51.024;13.826;2023-09-19T13:59:59;10.67;;;10.17;;
1276;SDS011;631;51.024;13.826;2023-09-19T14:02:24;10.53;;;10.10;;
1276;SDS011;631;51.024;13.826;2023-09-19T14:04:51;10.90;;;10.40;;
1276;SDS011;631;51.024;13.826;2023-09-19T14:07:17;9.80;;;9.40;;
1276;SDS011;631;51.024;13.826;2023-09-19T14:09:45;9.80;;;9.40;;
1276;SDS011;631;51.024;13.826;2023-09-19T14:12:10;10.70;;;10.20;;
1276;SDS011;631;51.024;13.826;2023-09-19T14:14:36;10.90;;;10.40;;
1276;SDS011;631;51.024;13.826;2023-09-19T14:17:03;11.57;;;11.07;;
1276;SDS011;631;51.024;13.826;2023-09-19T14:19:29;11.07;;;10.57;;
1276;SDS011;631;51.024;13.826;2023-09-19T14:21:55;10.73;;;10.23;;
1276;SDS011;631;51.024;13.826;2023-09-19T14:24:20;10.10;;;9.70;;
1276;SDS011;631;51.024;13.826;2023-09-19T14:26:47;10.40;;;9.90;;
1276;SDS011;631;51.024;13.826;2023-09-19T14:29:14;9.90;;;9.50;;
1276;SDS011;631;51.024;13.826;2023-09-19T14:31:40;10.47;;;9.97;;
1276;SDS011;631;51.024;13.826;2023-09-19T14:34:06;10.60;;;10.20;;
1276;SDS011;631;51.024;13.826;2023-09-19T14:36:32;10.40;;;9.90;;
1276;SDS011;631;51.024;13.826;2023-09-19T14:38:58;10.77;;;10.37;;
1276;SDS011;631;51.024;13.826;2023-09-19T14:41:24;10.33;;;9.83;;
1276;SDS011;631;51.024;13.826;2023-09-19T14:43:53;10.17;;;9.67;;
1276;SDS011;631;51.024;13.826;2023-09-19T14:46:20;10.60;;;10.10;;
1276;SDS011;631;51.024;13.826;2023-09-19T14:48:46;11.00;;;10.50;;
1276;SDS011;631;51.024;13.826;2023-09-19T14:51:12;11.57;;;10.90;;
1276;SDS011;631;51.024;13.826;2023-09-19T14:53:38;10.90;;;10.40;;
1276;SDS011;631;51.024;13.826;2023-09-19T14:56:08;10.73;;;10.20;;
1276;SDS011;631;51.024;13.826;2023-09-19T14:58:34;10.90;;;10.40;;
1276;SDS011;631;51.024;13.826;2023-09-19T15:01:10;11.10;;;10.60;;
1276;SDS011;631;51.024;13.826;2023-09-19T15:03:37;10.77;;;10.27;;
1276;SDS011;631;51.024;13.826;2023-09-19T15:06:08;11.70;;;11.20;;
1276;SDS011;631;51.024;13.826;2023-09-19T15:08:35;11.33;;;10.73;;
1276;SDS011;631;51.024;13.826;2023-09-19T15:11:06;11.50;;;11.00;;
1276;SDS011;631;51.024;13.826;2023-09-19T15:13:32;10.93;;;10.43;;
1276;SDS011;631;51.024;13.826;2023-09-19T15:16:02;11.63;;;11.03;;
1276;SDS011;631;51.024;13.826;2023-09-19T15:18:39;11.60;;;11.00;;
1276;SDS011;631;51.024;13.826;2023-09-19T15:21:10;11.10;;;10.60;;
1276;SDS011;631;51.024;13.826;2023-09-19T15:23:36;11.37;;;10.77;;
1276;SDS011;631;51.024;13.826;2023-09-19T15:26:03;10.93;;;10.40;;
1276;SDS011;631;51.024;13.826;2023-09-19T15:28:30;11.20;;;10.70;;
1276;SDS011;631;51.024;13.826;2023-09-19T15:30:58;11.33;;;10.83;;
1276;SDS011;631;51.024;13.826;2023-09-19T15:33:29;10.60;;;10.10;;
1276;SDS011;631;51.024;13.826;2023-09-19T15:38:28;10.27;;;9.80;;
1276;SDS011;631;51.024;13.826;2023-09-19T15:40:54;11.20;;;10.67;;
1276;SDS011;631;51.024;13.826;2023-09-19T15:43:20;11.00;;;10.50;;
1276;SDS011;631;51.024;13.826;2023-09-19T15:45:46;11.10;;;10.30;;
1276;SDS011;631;51.024;13.826;2023-09-19T15:48:13;11.50;;;11.00;;
1276;SDS011;631;51.024;13.826;2023-09-19T15:50:39;11.97;;;11.37;;
1276;SDS011;631;51.024;13.826;2023-09-19T15:53:07;11.50;;;10.90;;
1276;SDS011;631;51.024;13.826;2023-09-19T15:55:40;11.53;;;11.03;;
1276;SDS011;631;51.024;13.826;2023-09-19T15:58:06;11.80;;;11.20;;